sensor_id;sensor_type;location;lat;lon;timestamp;pressure;altitude;pressure_sealevel;temperature;humidity
70302;BME280;57706;56.326;43.882;2023-07-24T00:01:43;99803.50;;;15.95;85.28
70302;BME280;57706;56.326;43.882;2023-07-24T00:04:09;99800.47;;;15.85;85.81
70302;BME280;57706;56.326;43.882;2023-07-24T00:06:35;99804.31;;;15.89;85.65
70302;BME280;57706;56.326;43.882;2023-07-24T00:09:00;99803.31;;;15.90;85.03
70302;BME280;57706;56.326;43.882;2023-07-24T00:11:26;99802.28;;;15.85;85.70
70302;BME280;57706;56.326;43.882;2023-07-24T00:13:52;99806.81;;;15.84;85.43
70302;BME280;57706;56.326;43.882;2023-07-24T00:16:18;99809.00;;;16.01;84.70
70302;BME280;57706;56.326;43.882;2023-07-24T00:18:44;99805.13;;;15.96;84.73
70302;BME280;57706;56.326;43.882;2023-07-24T00:21:09;99803.03;;;16.05;84.26
70302;BME280;57706;56.326;43.882;2023-07-24T00:23:36;99798.97;;;16.03;83.67
70302;BME280;57706;56.326;43.882;2023-07-24T00:26:02;99799.38;;;16.06;83.03
70302;BME280;57706;56.326;43.882;2023-07-24T00:28:28;99802.69;;;15.88;84.02
70302;BME280;57706;56.326;43.882;2023-07-24T00:30:53;99791.50;;;15.86;84.43
70302;BME280;57706;56.326;43.882;2023-07-24T00:33:20;99802.31;;;15.91;84.24
70302;BME280;57706;56.326;43.882;2023-07-24T00:35:46;99798.84;;;15.84;84.22
70302;BME280;57706;56.326;43.882;2023-07-24T00:38:12;99791.81;;;16.10;82.87
70302;BME280;57706;56.326;43.882;2023-07-24T00:40:38;99784.69;;;16.04;82.57
70302;BME280;57706;56.326;43.882;2023-07-24T00:43:04;99790.00;;;16.04;82.86
70302;BME280;57706;56.326;43.882;2023-07-24T00:45:30;99784.94;;;15.95;83.44
70302;BME280;57706;56.326;43.882;2023-07-24T00:47:58;99793.53;;;15.91;83.41
70302;BME280;57706;56.326;43.882;2023-07-24T00:50:24;99788.00;;;15.99;83.17
70302;BME280;57706;56.326;43.882;2023-07-24T00:52:51;99784.97;;;15.89;83.04
70302;BME280;57706;56.326;43.882;2023-07-24T00:55:17;99784.78;;;15.83;83.49
70302;BME280;57706;56.326;43.882;2023-07-24T00:57:43;99778.94;;;15.75;84.01
70302;BME280;57706;56.326;43.882;2023-07-24T01:00:10;99784.38;;;15.87;83.23
70302;BME280;57706;56.326;43.882;2023-07-24T01:02:37;99784.81;;;15.77;83.76
70302;BME280;57706;56.326;43.882;2023-07-24T01:05:04;99781.97;;;15.72;83.61
70302;BME280;57706;56.326;43.882;2023-07-24T01:07:32;99788.97;;;15.59;84.13
70302;BME280;57706;56.326;43.882;2023-07-24T01:09:58;99789.78;;;15.60;84.34
70302;BME280;57706;56.326;43.882;2023-07-24T01:12:41;99790.63;;;15.53;84.33
70302;BME280;57706;56.326;43.882;2023-07-24T01:15:35;99786.97;;;15.48;84.66
70302;BME280;57706;56.326;43.882;2023-07-24T01:18:09;99783.72;;;15.46;84.72
70302;BME280;57706;56.326;43.882;2023-07-24T01:20:40;99781.38;;;15.69;83.74
70302;BME280;57706;56.326;43.882;2023-07-24T01:25:56;99790.31;;;15.82;82.67
70302;BME280;57706;56.326;43.882;2023-07-24T01:28:23;99787.22;;;15.85;82.56
70302;BME280;57706;56.326;43.882;2023-07-24T01:30:48;99793.72;;;15.89;82.34
70302;BME280;57706;56.326;43.882;2023-07-24T01:33:14;99788.19;;;15.98;82.20
70302;BME280;57706;56.326;43.882;2023-07-24T01:35:42;99783.00;;;16.16;81.45
70302;BME280;57706;56.326;43.882;2023-07-24T01:38:11;99791.47;;;16.32;79.94
70302;BME280;57706;56.326;43.882;2023-07-24T01:40:41;99792.66;;;16.36;79.80
70302;BME280;57706;56.326;43.882;2023-07-24T01:43:08;99785.63;;;16.48;79.02
70302;BME280;57706;56.326;43.882;2023-07-24T01:45:34;99787.66;;;16.46;79.04
70302;BME280;57706;56.326;43.882;2023-07-24T01:48:03;99788.09;;;16.43;79.12
70302;BME280;57706;56.326;43.882;2023-07-24T01:50:29;99790.22;;;16.60;78.50
70302;BME280;57706;56.326;43.882;2023-07-24T01:52:55;99789.19;;;16.61;78.26
70302;BME280;57706;56.326;43.882;2023-07-24T01:55:21;99790.03;;;16.55;78.59
70302;BME280;57706;56.326;43.882;2023-07-24T01:57:47;99807.59;;;16.56;78.49
70302;BME280;57706;56.326;43.882;2023-07-24T02:00:13;99796.44;;;16.47;78.97
70302;BME280;57706;56.326;43.882;2023-07-24T02:02:38;99793.91;;;16.59;78.80
70302;BME280;57706;56.326;43.882;2023-07-24T02:05:04;99794.75;;;16.78;77.95
70302;BME280;57706;56.326;43.882;2023-07-24T02:07:32;99786.94;;;16.83;77.58
70302;BME280;57706;56.326;43.882;2023-07-24T02:09:58;99797.19;;;16.79;77.71
70302;BME280;57706;56.326;43.882;2023-07-24T02:12:24;99794.63;;;16.91;77.38
70302;BME280;57706;56.326;43.882;2023-07-24T02:14:50;99794.69;;;16.85;77.62
70302;BME280;57706;56.326;43.882;2023-07-24T02:17:18;99793.94;;;16.77;78.31
70302;BME280;57706;56.326;43.882;2023-07-24T02:19:45;99791.09;;;16.79;78.48
70302;BME280;57706;56.326;43.882;2023-07-24T02:22:11;99788.53;;;16.91;77.92
70302;BME280;57706;56.326;43.882;2023-07-24T02:24:37;99789.56;;;16.90;78.08
70302;BME280;57706;56.326;43.882;2023-07-24T02:27:05;99803.09;;;17.07;77.52
70302;BME280;57706;56.326;43.882;2023-07-24T02:29:31;99807.22;;;17.03;77.43
70302;BME280;57706;56.326;43.882;2023-07-24T02:31:59;99796.53;;;17.10;77.15
70302;BME280;57706;56.326;43.882;2023-07-24T02:34:25;99810.84;;;17.09;77.65
70302;BME280;57706;56.326;43.882;2023-07-24T02:36:53;99806.09;;;17.11;77.72
70302;BME280;57706;56.326;43.882;2023-07-24T02:39:19;99809.63;;;17.04;77.80
70302;BME280;57706;56.326;43.882;2023-07-24T02:41:47;99815.41;;;17.01;78.15
70302;BME280;57706;56.326;43.882;2023-07-24T02:44:13;99817.47;;;17.18;77.26
70302;BME280;57706;56.326;43.882;2023-07-24T02:46:40;99810.00;;;17.08;77.53
70302;BME280;57706;56.326;43.882;2023-07-24T02:49:07;99817.09;;;16.89;78.84
70302;BME280;57706;56.326;43.882;2023-07-24T02:51:33;99822.41;;;16.89;79.03
70302;BME280;57706;56.326;43.882;2023-07-24T02:53:59;99810.50;;;16.98;78.62
70302;BME280;57706;56.326;43.882;2023-07-24T02:56:25;99806.84;;;16.92;78.92
70302;BME280;57706;56.326;43.882;2023-07-24T02:58:51;99809.63;;;17.04;78.50
70302;BME280;57706;56.326;43.882;2023-07-24T03:01:17;99813.31;;;17.03;78.29
70302;BME280;57706;56.326;43.882;2023-07-24T03:03:43;99816.34;;;17.07;78.66
70302;BME280;57706;56.326;43.882;2023-07-24T03:06:09;99812.91;;;17.06;78.57
70302;BME280;57706;56.326;43.882;2023-07-24T03:08:35;99809.66;;;17.42;77.20
70302;BME280;57706;56.326;43.882;2023-07-24T03:11:04;99808.25;;;17.88;75.42
70302;BME280;57706;56.326;43.882;2023-07-24T03:13:31;99815.31;;;18.13;74.17
70302;BME280;57706;56.326;43.882;2023-07-24T03:15:58;99810.31;;;18.05;74.40
70302;BME280;57706;56.326;43.882;2023-07-24T03:18:25;99821.97;;;18.04;74.33
70302;BME280;57706;56.326;43.882;2023-07-24T03:20:51;99822.88;;;17.98;74.92
70302;BME280;57706;56.326;43.882;2023-07-24T03:23:17;99814.03;;;18.16;74.60
70302;BME280;57706;56.326;43.882;2023-07-24T03:25:43;99816.75;;;18.28;74.01
70302;BME280;57706;56.326;43.882;2023-07-24T03:28:09;99819.66;;;18.50;72.92
70302;BME280;57706;56.326;43.882;2023-07-24T03:30:35;99824.16;;;18.26;73.62
70302;BME280;57706;56.326;43.882;2023-07-24T03:33:01;99826.00;;;18.37;73.01
70302;BME280;57706;56.326;43.882;2023-07-24T03:35:31;99822.25;;;18.69;72.13
70302;BME280;57706;56.326;43.882;2023-07-24T03:37:57;99819.44;;;18.40;72.88
70302;BME280;57706;56.326;43.882;2023-07-24T03:40:23;99814.69;;;18.42;73.08
70302;BME280;57706;56.326;43.882;2023-07-24T03:42:49;99813.75;;;18.36;73.39
70302;BME280;57706;56.326;43.882;2023-07-24T03:45:15;99802.53;;;18.34;73.55
70302;BME280;57706;56.326;43.882;2023-07-24T03:47:42;99812.31;;;18.22;74.29
70302;BME280;57706;56.326;43.882;2023-07-24T03:50:08;99820.91;;;18.24;73.88
70302;BME280;57706;56.326;43.882;2023-07-24T03:52:34;99813.84;;;18.18;74.39
70302;BME280;57706;56.326;43.882;2023-07-24T03:55:00;99815.78;;;18.10;74.51
70302;BME280;57706;56.326;43.882;2023-07-24T03:57:26;99819.19;;;17.80;75.33
70302;BME280;57706;56.326;43.882;2023-07-24T03:59:51;99816.50;;;17.68;76.23
70302;BME280;57706;56.326;43.882;2023-07-24T04:02:17;99815.09;;;17.66;76.14
70302;BME280;57706;56.326;43.882;2023-07-24T04:04:44;99810.16;;;17.69;76.06
70302;BME280;57706;56.326;43.882;2023-07-24T04:07:10;99814.00;;;17.55;76.57
70302;BME280;57706;56.326;43.882;2023-07-24T04:09:36;99825.00;;;17.58;76.59
70302;BME280;57706;56.326;43.882;2023-07-24T04:12:01;99825.19;;;17.75;75.62
70302;BME280;57706;56.326;43.882;2023-07-24T04:14:27;99831.88;;;17.97;74.80
70302;BME280;57706;56.326;43.882;2023-07-24T04:16:53;99834.22;;;18.05;73.80
70302;BME280;57706;56.326;43.882;2023-07-24T04:19:21;99834.84;;;17.88;74.46
70302;BME280;57706;56.326;43.882;2023-07-24T04:21:46;99838.47;;;17.94;74.48
70302;BME280;57706;56.326;43.882;2023-07-24T04:24:12;99844.09;;;17.86;75.22
70302;BME280;57706;56.326;43.882;2023-07-24T04:26:38;99846.91;;;17.72;75.35
70302;BME280;57706;56.326;43.882;2023-07-24T04:29:06;99848.00;;;17.46;76.80
70302;BME280;57706;56.326;43.882;2023-07-24T04:31:31;99850.53;;;17.41;77.06
70302;BME280;57706;56.326;43.882;2023-07-24T04:33:57;99837.84;;;17.24;77.89
70302;BME280;57706;56.326;43.882;2023-07-24T04:36:23;99841.66;;;17.10;78.92
70302;BME280;57706;56.326;43.882;2023-07-24T04:38:49;99847.84;;;17.22;78.38
70302;BME280;57706;56.326;43.882;2023-07-24T04:41:14;99855.22;;;17.20;78.51
70302;BME280;57706;56.326;43.882;2023-07-24T04:43:40;99848.63;;;16.78;80.71
70302;BME280;57706;56.326;43.882;2023-07-24T04:46:06;99850.59;;;16.90;80.57
70302;BME280;57706;56.326;43.882;2023-07-24T04:48:32;99858.75;;;16.88;80.76
70302;BME280;57706;56.326;43.882;2023-07-24T04:50:58;99853.38;;;16.95;80.15
70302;BME280;57706;56.326;43.882;2023-07-24T04:53:23;99856.22;;;17.00;79.79
70302;BME280;57706;56.326;43.882;2023-07-24T04:55:49;99856.88;;;16.96;79.61
70302;BME280;57706;56.326;43.882;2023-07-24T04:58:15;99865.09;;;16.87;80.02
70302;BME280;57706;56.326;43.882;2023-07-24T05:00:41;99866.34;;;16.85;79.74
70302;BME280;57706;56.326;43.882;2023-07-24T05:03:07;99856.03;;;16.95;79.75
70302;BME280;57706;56.326;43.882;2023-07-24T05:05:37;99857.94;;;16.88;80.26
70302;BME280;57706;56.326;43.882;2023-07-24T05:08:03;99865.22;;;16.99;79.61
70302;BME280;57706;56.326;43.882;2023-07-24T05:10:29;99869.31;;;16.95;79.23
70302;BME280;57706;56.326;43.882;2023-07-24T05:12:55;99871.56;;;16.98;78.30
70302;BME280;57706;56.326;43.882;2023-07-24T05:15:22;99872.50;;;17.29;77.17
70302;BME280;57706;56.326;43.882;2023-07-24T05:17:48;99861.44;;;17.70;75.94
70302;BME280;57706;56.326;43.882;2023-07-24T05:20:14;99869.06;;;17.97;73.66
70302;BME280;57706;56.326;43.882;2023-07-24T05:22:40;99865.50;;;18.10;72.56
70302;BME280;57706;56.326;43.882;2023-07-24T05:25:06;99867.28;;;18.28;71.73
70302;BME280;57706;56.326;43.882;2023-07-24T05:27:32;99860.78;;;18.66;69.75
70302;BME280;57706;56.326;43.882;2023-07-24T05:29:57;99860.94;;;19.07;67.11
70302;BME280;57706;56.326;43.882;2023-07-24T05:32:23;99862.31;;;19.22;65.49
70302;BME280;57706;56.326;43.882;2023-07-24T05:34:49;99864.28;;;19.79;63.58
70302;BME280;57706;56.326;43.882;2023-07-24T05:37:15;99862.16;;;20.05;62.52
70302;BME280;57706;56.326;43.882;2023-07-24T05:39:41;99865.56;;;20.01;61.72
70302;BME280;57706;56.326;43.882;2023-07-24T05:42:06;99875.38;;;20.29;61.51
70302;BME280;57706;56.326;43.882;2023-07-24T05:44:32;99866.97;;;20.38;60.78
70302;BME280;57706;56.326;43.882;2023-07-24T05:46:58;99863.25;;;20.21;59.62
70302;BME280;57706;56.326;43.882;2023-07-24T05:49:24;99863.78;;;20.70;57.96
70302;BME280;57706;56.326;43.882;2023-07-24T05:51:51;99856.16;;;20.96;57.75
70302;BME280;57706;56.326;43.882;2023-07-24T05:54:19;99863.28;;;21.47;55.79
70302;BME280;57706;56.326;43.882;2023-07-24T05:56:45;99862.00;;;21.71;55.67
70302;BME280;57706;56.326;43.882;2023-07-24T05:59:11;99861.34;;;22.09;53.88
70302;BME280;57706;56.326;43.882;2023-07-24T06:01:37;99860.09;;;21.94;54.63
70302;BME280;57706;56.326;43.882;2023-07-24T06:04:02;99857.78;;;24.81;46.60
70302;BME280;57706;56.326;43.882;2023-07-24T06:06:28;99852.53;;;25.36;46.81
70302;BME280;57706;56.326;43.882;2023-07-24T06:08:54;99855.56;;;25.85;43.59
70302;BME280;57706;56.326;43.882;2023-07-24T06:11:20;99853.50;;;24.80;45.44
70302;BME280;57706;56.326;43.882;2023-07-24T06:13:46;99858.84;;;24.38;47.22
70302;BME280;57706;56.326;43.882;2023-07-24T06:16:12;99859.88;;;24.11;47.53
70302;BME280;57706;56.326;43.882;2023-07-24T06:18:39;99859.41;;;24.45;47.49
70302;BME280;57706;56.326;43.882;2023-07-24T06:21:05;99853.75;;;24.83;46.54
70302;BME280;57706;56.326;43.882;2023-07-24T06:23:31;99852.38;;;24.75;45.62
70302;BME280;57706;56.326;43.882;2023-07-24T06:25:56;99864.75;;;24.61;46.40
70302;BME280;57706;56.326;43.882;2023-07-24T06:28:22;99861.81;;;24.52;46.61
70302;BME280;57706;56.326;43.882;2023-07-24T06:30:52;99869.50;;;23.97;47.53
70302;BME280;57706;56.326;43.882;2023-07-24T06:33:18;99862.59;;;24.99;43.70
70302;BME280;57706;56.326;43.882;2023-07-24T06:35:44;99865.28;;;24.68;44.68
70302;BME280;57706;56.326;43.882;2023-07-24T06:38:10;99864.53;;;23.52;48.18
70302;BME280;57706;56.326;43.882;2023-07-24T06:40:35;99862.72;;;23.20;48.67
70302;BME280;57706;56.326;43.882;2023-07-24T06:43:01;99864.31;;;23.69;47.45
70302;BME280;57706;56.326;43.882;2023-07-24T06:45:27;99866.34;;;24.36;45.86
70302;BME280;57706;56.326;43.882;2023-07-24T06:47:53;99872.41;;;23.26;48.50
70302;BME280;57706;56.326;43.882;2023-07-24T06:50:19;99867.78;;;27.79;38.88
70302;BME280;57706;56.326;43.882;2023-07-24T06:52:44;99868.59;;;26.07;41.63
70302;BME280;57706;56.326;43.882;2023-07-24T06:55:10;99874.28;;;27.97;38.42
70302;BME280;57706;56.326;43.882;2023-07-24T06:57:36;99871.44;;;32.29;31.20
70302;BME280;57706;56.326;43.882;2023-07-24T07:00:02;99870.75;;;31.35;30.91
70302;BME280;57706;56.326;43.882;2023-07-24T07:02:34;99872.34;;;28.69;35.48
70302;BME280;57706;56.326;43.882;2023-07-24T07:04:59;99877.00;;;26.41;40.19
70302;BME280;57706;56.326;43.882;2023-07-24T07:07:25;99863.91;;;30.97;31.88
70302;BME280;57706;56.326;43.882;2023-07-24T07:09:51;99866.84;;;33.55;28.33
70302;BME280;57706;56.326;43.882;2023-07-24T07:12:17;99875.00;;;32.77;28.71
70302;BME280;57706;56.326;43.882;2023-07-24T07:14:43;99856.72;;;34.78;26.27
70302;BME280;57706;56.326;43.882;2023-07-24T07:17:08;99858.88;;;31.13;31.14
70302;BME280;57706;56.326;43.882;2023-07-24T07:19:34;99869.91;;;29.01;34.83
70302;BME280;57706;56.326;43.882;2023-07-24T07:22:01;99865.03;;;35.85;25.47
70302;BME280;57706;56.326;43.882;2023-07-24T07:24:27;99856.09;;;31.80;30.35
70302;BME280;57706;56.326;43.882;2023-07-24T07:26:53;99855.81;;;32.82;28.78
70302;BME280;57706;56.326;43.882;2023-07-24T07:29:19;99852.06;;;34.32;27.92
70302;BME280;57706;56.326;43.882;2023-07-24T07:31:44;99850.53;;;32.03;29.96
70302;BME280;57706;56.326;43.882;2023-07-24T07:34:10;99835.75;;;35.86;24.82
70302;BME280;57706;56.326;43.882;2023-07-24T07:36:36;99836.94;;;39.97;21.03
70302;BME280;57706;56.326;43.882;2023-07-24T07:39:02;99831.00;;;41.56;18.83
70302;BME280;57706;56.326;43.882;2023-07-24T07:41:28;99818.16;;;39.65;20.32
70302;BME280;57706;56.326;43.882;2023-07-24T07:43:54;99822.09;;;42.24;17.86
70302;BME280;57706;56.326;43.882;2023-07-24T07:46:20;99825.00;;;36.21;23.82
70302;BME280;57706;56.326;43.882;2023-07-24T07:48:46;99823.31;;;36.97;22.78
70302;BME280;57706;56.326;43.882;2023-07-24T07:51:12;99825.72;;;35.90;24.08
70302;BME280;57706;56.326;43.882;2023-07-24T07:53:38;99821.94;;;30.63;31.32
70302;BME280;57706;56.326;43.882;2023-07-24T07:56:04;99819.28;;;31.21;30.78
70302;BME280;57706;56.326;43.882;2023-07-24T07:58:30;99823.88;;;36.87;21.91
70302;BME280;57706;56.326;43.882;2023-07-24T08:00:55;99804.94;;;40.65;18.15
70302;BME280;57706;56.326;43.882;2023-07-24T08:03:21;99813.69;;;43.12;16.09
70302;BME280;57706;56.326;43.882;2023-07-24T08:05:47;99817.81;;;38.82;20.36
70302;BME280;57706;56.326;43.882;2023-07-24T08:08:13;99824.16;;;33.08;26.50
70302;BME280;57706;56.326;43.882;2023-07-24T08:10:39;99827.63;;;32.39;27.72
70302;BME280;57706;56.326;43.882;2023-07-24T08:13:05;99819.34;;;38.79;18.99
70302;BME280;57706;56.326;43.882;2023-07-24T08:15:37;99816.56;;;42.39;15.50
70302;BME280;57706;56.326;43.882;2023-07-24T08:18:04;99805.81;;;45.49;13.03
70302;BME280;57706;56.326;43.882;2023-07-24T08:20:30;99793.63;;;49.15;11.52
70302;BME280;57706;56.326;43.882;2023-07-24T08:22:56;99796.75;;;47.99;11.19
70302;BME280;57706;56.326;43.882;2023-07-24T08:25:23;99793.75;;;40.43;16.66
70302;BME280;57706;56.326;43.882;2023-07-24T08:27:49;99792.66;;;35.38;22.07
70302;BME280;57706;56.326;43.882;2023-07-24T08:30:14;99781.63;;;43.29;14.94
70302;BME280;57706;56.326;43.882;2023-07-24T08:32:40;99779.59;;;47.31;11.84
70302;BME280;57706;56.326;43.882;2023-07-24T08:35:06;99792.00;;;47.09;11.17
70302;BME280;57706;56.326;43.882;2023-07-24T08:37:32;99777.19;;;44.13;13.15
70302;BME280;57706;56.326;43.882;2023-07-24T08:39:58;99787.00;;;36.64;19.62
70302;BME280;57706;56.326;43.882;2023-07-24T08:42:24;99791.28;;;37.33;19.44
70302;BME280;57706;56.326;43.882;2023-07-24T08:44:51;99776.69;;;36.26;20.36
70302;BME280;57706;56.326;43.882;2023-07-24T08:47:19;99781.94;;;39.97;17.18
70302;BME280;57706;56.326;43.882;2023-07-24T08:49:46;99779.09;;;43.64;13.93
70302;BME280;57706;56.326;43.882;2023-07-24T08:52:12;99782.56;;;45.67;12.49
70302;BME280;57706;56.326;43.882;2023-07-24T08:54:38;99776.31;;;44.24;13.24
70302;BME280;57706;56.326;43.882;2023-07-24T08:57:06;99770.13;;;44.89;12.80
70302;BME280;57706;56.326;43.882;2023-07-24T08:59:34;99765.69;;;46.33;11.83
70302;BME280;57706;56.326;43.882;2023-07-24T09:02:00;99781.50;;;47.71;11.01
70302;BME280;57706;56.326;43.882;2023-07-24T09:04:26;99769.56;;;46.36;12.23
70302;BME280;57706;56.326;43.882;2023-07-24T09:06:52;99765.44;;;43.95;13.05
70302;BME280;57706;56.326;43.882;2023-07-24T09:09:18;99772.41;;;42.32;14.76
70302;BME280;57706;56.326;43.882;2023-07-24T09:11:52;99766.78;;;47.00;11.96
70302;BME280;57706;56.326;43.882;2023-07-24T09:14:25;99765.19;;;42.96;14.16
70302;BME280;57706;56.326;43.882;2023-07-24T09:19:29;99768.06;;;35.38;21.38
70302;BME280;57706;56.326;43.882;2023-07-24T09:21:55;99764.31;;;36.32;20.71
70302;BME280;57706;56.326;43.882;2023-07-24T09:24:21;99760.53;;;40.77;16.23
70302;BME280;57706;56.326;43.882;2023-07-24T09:26:51;99754.75;;;40.90;16.18
70302;BME280;57706;56.326;43.882;2023-07-24T09:29:18;99761.97;;;38.71;17.88
70302;BME280;57706;56.326;43.882;2023-07-24T09:31:44;99762.06;;;39.39;17.79
70302;BME280;57706;56.326;43.882;2023-07-24T09:34:16;99757.41;;;44.11;13.96
70302;BME280;57706;56.326;43.882;2023-07-24T09:36:42;99757.69;;;43.75;13.98
70302;BME280;57706;56.326;43.882;2023-07-24T09:39:08;99761.88;;;46.23;12.41
70302;BME280;57706;56.326;43.882;2023-07-24T09:41:36;99749.53;;;40.21;16.52
70302;BME280;57706;56.326;43.882;2023-07-24T09:44:02;99751.06;;;40.15;17.05
70302;BME280;57706;56.326;43.882;2023-07-24T09:46:28;99738.63;;;43.88;13.95
70302;BME280;57706;56.326;43.882;2023-07-24T09:48:58;99745.53;;;44.18;13.40
70302;BME280;57706;56.326;43.882;2023-07-24T09:51:25;99740.94;;;46.63;12.07
70302;BME280;57706;56.326;43.882;2023-07-24T09:54:13;99736.59;;;44.80;12.88
70302;BME280;57706;56.326;43.882;2023-07-24T09:56:41;99738.28;;;45.60;12.57
70302;BME280;57706;56.326;43.882;2023-07-24T09:59:09;99745.41;;;45.88;12.39
70302;BME280;57706;56.326;43.882;2023-07-24T10:01:37;99737.34;;;48.65;10.77
70302;BME280;57706;56.326;43.882;2023-07-24T10:04:03;99729.97;;;47.82;11.11
70302;BME280;57706;56.326;43.882;2023-07-24T10:06:29;99732.22;;;42.23;15.35
70302;BME280;57706;56.326;43.882;2023-07-24T10:08:57;99729.47;;;40.17;16.92
70302;BME280;57706;56.326;43.882;2023-07-24T10:11:24;99739.47;;;39.91;17.42
70302;BME280;57706;56.326;43.882;2023-07-24T10:13:50;99735.41;;;35.70;21.67
70302;BME280;57706;56.326;43.882;2023-07-24T10:16:16;99730.16;;;33.19;24.18
70302;BME280;57706;56.326;43.882;2023-07-24T10:18:46;99734.88;;;31.58;26.70
70302;BME280;57706;56.326;43.882;2023-07-24T10:21:13;99738.38;;;30.65;27.13
70302;BME280;57706;56.326;43.882;2023-07-24T10:23:44;99748.13;;;29.80;28.42
70302;BME280;57706;56.326;43.882;2023-07-24T10:26:12;99738.25;;;38.32;18.93
70302;BME280;57706;56.326;43.882;2023-07-24T10:28:47;99740.38;;;35.11;22.15
70302;BME280;57706;56.326;43.882;2023-07-24T10:31:25;99743.19;;;32.75;25.14
70302;BME280;57706;56.326;43.882;2023-07-24T10:33:53;99745.31;;;29.85;28.61
70302;BME280;57706;56.326;43.882;2023-07-24T10:36:21;99750.16;;;30.52;28.04
70302;BME280;57706;56.326;43.882;2023-07-24T10:38:53;99745.81;;;30.10;28.97
70302;BME280;57706;56.326;43.882;2023-07-24T10:41:19;99740.66;;;31.30;27.17
70302;BME280;57706;56.326;43.882;2023-07-24T10:43:52;99742.84;;;29.75;29.70
70302;BME280;57706;56.326;43.882;2023-07-24T10:46:41;99748.97;;;30.75;27.85
70302;BME280;57706;56.326;43.882;2023-07-24T10:49:08;99741.22;;;40.66;17.37
70302;BME280;57706;56.326;43.882;2023-07-24T10:51:34;99733.47;;;43.26;14.64
70302;BME280;57706;56.326;43.882;2023-07-24T10:54:03;99738.41;;;45.53;13.07
70302;BME280;57706;56.326;43.882;2023-07-24T10:56:29;99732.22;;;43.98;13.56
70302;BME280;57706;56.326;43.882;2023-07-24T10:58:55;99732.06;;;43.67;13.49
70302;BME280;57706;56.326;43.882;2023-07-24T11:01:23;99720.63;;;44.53;13.45
70302;BME280;57706;56.326;43.882;2023-07-24T11:03:49;99723.09;;;42.48;14.55
70302;BME280;57706;56.326;43.882;2023-07-24T11:06:18;99732.50;;;41.38;15.51
70302;BME280;57706;56.326;43.882;2023-07-24T11:08:58;99716.19;;;46.48;11.91
70302;BME280;57706;56.326;43.882;2023-07-24T11:11:31;99721.59;;;49.40;10.10
70302;BME280;57706;56.326;43.882;2023-07-24T11:13:58;99713.00;;;48.53;10.65
70302;BME280;57706;56.326;43.882;2023-07-24T11:16:25;99703.06;;;50.61;9.84
70302;BME280;57706;56.326;43.882;2023-07-24T11:18:51;99703.09;;;51.43;8.78
70302;BME280;57706;56.326;43.882;2023-07-24T11:21:18;99698.72;;;47.25;11.52
70302;BME280;57706;56.326;43.882;2023-07-24T11:23:52;99693.09;;;40.38;16.12
70302;BME280;57706;56.326;43.882;2023-07-24T11:26:23;99696.06;;;36.19;20.50
70302;BME280;57706;56.326;43.882;2023-07-24T11:28:50;99705.16;;;33.60;23.56
70302;BME280;57706;56.326;43.882;2023-07-24T11:31:16;99704.53;;;32.30;25.26
70302;BME280;57706;56.326;43.882;2023-07-24T11:33:46;99696.50;;;30.31;27.39
70302;BME280;57706;56.326;43.882;2023-07-24T11:36:12;99708.06;;;28.80;30.21
70302;BME280;57706;56.326;43.882;2023-07-24T11:38:38;99705.88;;;28.54;30.87
70302;BME280;57706;56.326;43.882;2023-07-24T11:41:05;99702.09;;;28.41;31.19
70302;BME280;57706;56.326;43.882;2023-07-24T11:43:31;99705.31;;;28.85;30.33
70302;BME280;57706;56.326;43.882;2023-07-24T11:45:57;99696.44;;;29.08;29.83
70302;BME280;57706;56.326;43.882;2023-07-24T11:48:24;99693.22;;;29.20;29.62
70302;BME280;57706;56.326;43.882;2023-07-24T11:50:53;99694.25;;;28.68;30.68
70302;BME280;57706;56.326;43.882;2023-07-24T11:53:30;99694.06;;;28.78;30.47
70302;BME280;57706;56.326;43.882;2023-07-24T11:55:57;99691.06;;;29.99;28.87
70302;BME280;57706;56.326;43.882;2023-07-24T11:58:28;99689.88;;;28.44;31.18
70302;BME280;57706;56.326;43.882;2023-07-24T12:00:56;99703.28;;;27.30;32.71
70302;BME280;57706;56.326;43.882;2023-07-24T12:03:25;99700.38;;;26.34;34.29
70302;BME280;57706;56.326;43.882;2023-07-24T12:05:51;99701.56;;;25.59;36.17
70302;BME280;57706;56.326;43.882;2023-07-24T12:08:19;99703.34;;;25.28;37.01
70302;BME280;57706;56.326;43.882;2023-07-24T12:10:45;99707.81;;;24.93;37.69
70302;BME280;57706;56.326;43.882;2023-07-24T12:13:12;99704.09;;;24.68;38.63
70302;BME280;57706;56.326;43.882;2023-07-24T12:15:37;99702.47;;;24.78;38.63
70302;BME280;57706;56.326;43.882;2023-07-24T12:18:05;99709.47;;;24.73;38.40
70302;BME280;57706;56.326;43.882;2023-07-24T12:20:31;99708.41;;;24.69;38.23
70302;BME280;57706;56.326;43.882;2023-07-24T12:22:57;99709.56;;;24.42;38.97
70302;BME280;57706;56.326;43.882;2023-07-24T12:25:23;99710.28;;;24.84;38.50
70302;BME280;57706;56.326;43.882;2023-07-24T12:27:50;99703.56;;;25.77;36.70
70302;BME280;57706;56.326;43.882;2023-07-24T12:30:16;99705.56;;;27.95;33.10
70302;BME280;57706;56.326;43.882;2023-07-24T12:32:42;99692.47;;;28.21;32.95
70302;BME280;57706;56.326;43.882;2023-07-24T12:35:08;99688.91;;;27.73;33.44
70302;BME280;57706;56.326;43.882;2023-07-24T12:37:34;99688.28;;;28.10;32.86
70302;BME280;57706;56.326;43.882;2023-07-24T12:40:01;99680.88;;;28.63;32.10
70302;BME280;57706;56.326;43.882;2023-07-24T12:42:29;99676.81;;;30.57;29.47
70302;BME280;57706;56.326;43.882;2023-07-24T12:44:54;99684.97;;;33.61;25.59
70302;BME280;57706;56.326;43.882;2023-07-24T12:47:20;99680.16;;;35.77;22.79
70302;BME280;57706;56.326;43.882;2023-07-24T12:49:46;99677.88;;;35.79;22.34
70302;BME280;57706;56.326;43.882;2023-07-24T12:52:12;99673.44;;;35.58;22.04
70302;BME280;57706;56.326;43.882;2023-07-24T12:54:38;99683.00;;;33.95;23.80